Mount Vernon, Virginia
Current Conditions -  °F | °C
As of 10:58 PM on Saturday 22 Nov 2014 (Local Time) from KDAA Reporting Station
Broken Clouds Broken Clouds  
Wind Chill: 40°   Ceiling: 11000
Heat Index: 43°   Visibility: 10mi
Dew Point: 21°   Wind: 6mph
Humidity: 41%   Direction: 160°SSE
Pressure: 30.27"   Gusts: NA
Location:  38.71°N, 77.08°W
Report Text: KDAA 230358Z AUTO 16005KT 10SM BKN110 06/M06 A3027 RMK AO2 SLP254 T00621063
Loading
Personal Weather Stations






























Interactive Weather Map New forecast layout! Learn more

10-Day Weather Forecast

Advertisements
Track Severe Weather on mobile